Etusivu
METAR-TAF:

METAR-TAF

Lentoasemat :

Dole, Ranska

Leveyspiiri: 47-02-34N, Pituuspiiri: 005-26-06E, korkeus merenpinnasta: 196 m

Tämänhetkinen sää

Tämä raportti tehtiin 35 minuuttia sitten, kello 03.30 UTC
Tuuli 9 kn pohjoisesta
Lämpötila 1°C
Kosteus 93%
Ilmanpaine 1030 hPa
Näkyvyys 10 km tai enemmän
ei pilviä alle 1500 m:ssä eikä cumulonimbus-pilviä

METAR: LFGJ 190330Z AUTO 01009KT CAVOK 01/M00 Q1030

Aika: 05:05 (04:05 UTC)

Sääennuste

Tämä raportti tehtiin 14 tuntia ja 5 minuuttia sitten, kello 14.00 UTC
Ennuste voimassa 18. päivästä klo 15 UTC - 18. päivään klo 24 UTC
Tuuli 3 kn eri suunnista
Näkyvyys 10 km tai enemmän
Muutamia pilviä 2000 ft:n korkeudessa
Hajanaisia pilviä 3000 ft:n korkeudessa
Tulossa
18. päivästä klo 15 UTC - 18. päivään klo 18 UTC
Tuuli 6 kn pohjoisesta

TAF: LFGJ 181400Z 1815/1824 VRB03KT 9999 FEW020 SCT030 BECMG 1815/1818 01006KT

Säähavainnot ja -ennusteet yli 4000 lentoasemalta (METAR- ja TAF-raportit).

Käytössä olevat sääasemat on merkitty karttaan keltaisilla ja punaisilla pisteillä.

Aseta hiiri pisteen päälle nähdäksesi sääaseman nimen.

Klikkaa sitten nähdäksesi säähavainnot ja -ennusteet.

Kartan vaihtaminen: klikkaa mustalla rastilla varustettuja vihreitä pisteitä, niin voit zoomata sisään; viivalla varustettua vihreää pistettä, niin voit zoomata ulos tai vihreitä nuolia, niin pääset viereisille kartoille.


METAR-TAF: